Terminal Aerodrome Forecast
Issued by NWS

Home | Current Version | Previous Version | Text Only | Print | Product List | Glossary On
Versions: 1 2 3 4 5 6 7 8 9 10 11 12 13
000
FTUS46 KMFR 020000 AAA
TAFLMT
TAF AMD
KLMT 020025Z 0200/0224 32012G18KT P6SM FEW100 SCT200
     FM020300 29008KT P6SM FEW100 SCT200
     FM020500 31005KT P6SM SCT200
     FM022200 30012KT P6SM FEW100 SCT200=

USA.gov is the U.S. government's official web portal to all federal, state and local government web resources and services.